createdAt,value
2023-04-27T00:01:39.921Z,0.77
2023-04-27T00:04:07.718Z,1.00
2023-04-27T00:06:34.721Z,0.83
2023-04-27T00:09:01.878Z,0.70
2023-04-27T00:11:28.694Z,0.57
2023-04-27T00:13:56.341Z,0.60
2023-04-27T00:16:23.219Z,0.80
2023-04-27T00:18:50.190Z,0.80
2023-04-27T00:21:17.017Z,0.47
2023-04-27T00:23:44.069Z,0.73
2023-04-27T00:26:10.996Z,0.83
2023-04-27T00:28:37.795Z,0.80
2023-04-27T00:31:04.861Z,0.70
2023-04-27T00:33:31.952Z,0.80
2023-04-27T00:36:02.430Z,0.80
2023-04-27T00:38:30.242Z,0.77
2023-04-27T00:41:07.459Z,0.90
2023-04-27T00:43:45.230Z,0.80
2023-04-27T00:46:15.515Z,0.90
2023-04-27T00:48:42.647Z,0.80
2023-04-27T00:51:09.556Z,1.07
2023-04-27T00:53:37.271Z,1.13
2023-04-27T00:56:05.809Z,0.90
2023-04-27T00:58:33.099Z,1.00
2023-04-27T01:01:01.053Z,1.07
2023-04-27T01:03:28.155Z,0.80
2023-04-27T01:05:56.924Z,1.33
2023-04-27T01:08:23.842Z,0.90
2023-04-27T01:10:50.861Z,1.10
2023-04-27T01:13:17.831Z,0.83
2023-04-27T01:15:44.731Z,1.30
2023-04-27T01:18:11.662Z,0.90
2023-04-27T01:20:38.913Z,1.03
2023-04-27T01:23:05.986Z,1.00
2023-04-27T01:25:32.835Z,1.10
2023-04-27T01:27:59.768Z,0.97
2023-04-27T01:30:28.716Z,0.87
2023-04-27T01:32:56.015Z,1.33
2023-04-27T01:35:22.906Z,1.37
2023-04-27T01:37:49.766Z,1.20
2023-04-27T01:40:16.628Z,1.10
2023-04-27T01:42:43.483Z,1.43
2023-04-27T01:45:11.311Z,1.00
2023-04-27T01:47:38.264Z,1.47
2023-04-27T01:50:05.529Z,1.50
2023-04-27T01:52:32.496Z,1.27
2023-04-27T01:54:59.328Z,1.23
2023-04-27T01:57:26.869Z,1.73
2023-04-27T01:59:53.751Z,1.30
2023-04-27T02:02:20.940Z,1.70
2023-04-27T02:04:48.014Z,1.40
2023-04-27T02:07:14.956Z,1.60
2023-04-27T02:09:42.068Z,1.50
2023-04-27T02:12:08.915Z,1.70
2023-04-27T02:14:35.869Z,1.60
2023-04-27T02:17:02.698Z,1.60
2023-04-27T02:19:29.538Z,1.97
2023-04-27T02:21:56.382Z,1.50
2023-04-27T02:24:23.226Z,1.80
2023-04-27T02:26:50.157Z,2.00
2023-04-27T02:29:17.257Z,1.77
2023-04-27T02:31:44.711Z,1.37
2023-04-27T02:34:11.607Z,1.83
2023-04-27T02:36:38.443Z,1.80
2023-04-27T02:39:05.855Z,1.90
2023-04-27T02:41:33.096Z,1.80
2023-04-27T02:44:00.106Z,2.13
2023-04-27T02:46:27.471Z,1.77
2023-04-27T02:48:55.408Z,1.93
2023-04-27T02:51:22.433Z,1.90
2023-04-27T02:53:49.253Z,2.60
2023-04-27T02:56:16.147Z,2.03
2023-04-27T02:58:43.287Z,2.17
2023-04-27T03:01:10.117Z,2.13
2023-04-27T03:03:37.236Z,2.17
2023-04-27T03:06:04.345Z,2.70
2023-04-27T03:08:31.216Z,2.90
2023-04-27T03:10:58.042Z,2.40
2023-04-27T03:13:24.889Z,2.60
2023-04-27T03:15:51.673Z,2.70
2023-04-27T03:18:18.649Z,2.63
2023-04-27T03:20:45.645Z,2.80
2023-04-27T03:23:12.583Z,2.70
2023-04-27T03:25:39.548Z,3.10
2023-04-27T03:28:06.877Z,2.87
2023-04-27T03:30:33.664Z,2.67
2023-04-27T03:33:00.586Z,2.90
2023-04-27T03:35:27.744Z,2.40
2023-04-27T03:37:54.548Z,3.33
2023-04-27T03:40:21.534Z,3.00
2023-04-27T03:42:48.312Z,2.90
2023-04-27T03:45:16.725Z,3.27
2023-04-27T03:47:43.605Z,3.07
2023-04-27T03:50:10.663Z,2.83
2023-04-27T03:52:37.640Z,3.57
2023-04-27T03:55:05.914Z,3.67
2023-04-27T03:57:32.699Z,3.03
2023-04-27T03:59:59.487Z,3.07
2023-04-27T04:02:26.481Z,2.87
2023-04-27T04:04:53.389Z,3.40
2023-04-27T04:07:20.941Z,2.90
2023-04-27T04:09:47.838Z,2.77
2023-04-27T04:12:14.682Z,2.63
2023-04-27T04:14:41.729Z,3.40
2023-04-27T04:17:11.144Z,3.33
2023-04-27T04:19:38.087Z,2.43
2023-04-27T04:22:05.182Z,2.13
2023-04-27T04:24:32.040Z,2.50
2023-04-27T04:26:58.892Z,2.30
2023-04-27T04:29:25.850Z,2.13
2023-04-27T04:31:52.803Z,2.30
2023-04-27T04:34:20.218Z,2.30
2023-04-27T04:36:47.135Z,1.90
2023-04-27T04:39:14.207Z,1.97
2023-04-27T04:41:41.160Z,2.00
2023-04-27T04:44:07.980Z,2.03
2023-04-27T04:46:35.205Z,2.00
2023-04-27T04:49:02.814Z,2.00
2023-04-27T04:51:29.674Z,2.77
2023-04-27T04:53:56.805Z,1.93
2023-04-27T04:56:24.046Z,1.80
2023-04-27T04:58:51.317Z,1.70
2023-04-27T05:01:18.515Z,1.80
2023-04-27T05:03:45.543Z,1.90
2023-04-27T05:06:12.436Z,1.67
2023-04-27T05:08:39.276Z,2.00
2023-04-27T05:11:06.284Z,1.40
2023-04-27T05:13:33.115Z,1.20
2023-04-27T05:15:59.936Z,1.20
2023-04-27T05:18:26.787Z,1.17
2023-04-27T05:20:53.615Z,1.20
2023-04-27T05:23:20.503Z,1.20
2023-04-27T05:25:47.406Z,1.30
2023-04-27T05:28:14.267Z,1.10
2023-04-27T05:30:41.198Z,1.10
2023-04-27T05:33:08.079Z,1.10
2023-04-27T05:35:35.242Z,0.97
2023-04-27T05:38:02.846Z,0.80
2023-04-27T05:40:29.771Z,1.20
2023-04-27T05:43:02.296Z,0.67
2023-04-27T05:45:29.467Z,0.90
2023-04-27T05:47:56.575Z,1.10
2023-04-27T05:50:23.550Z,0.83
2023-04-27T05:52:50.342Z,0.70
2023-04-27T05:55:17.264Z,0.80
2023-04-27T05:57:44.405Z,0.80
2023-04-27T06:00:12.811Z,0.60
2023-04-27T06:02:39.808Z,1.30
2023-04-27T06:05:07.343Z,1.10
2023-04-27T06:07:34.205Z,1.00
2023-04-27T06:10:01.095Z,0.87
2023-04-27T06:12:27.934Z,1.40
2023-04-27T06:14:54.761Z,1.10
2023-04-27T06:17:25.708Z,1.37
2023-04-27T06:19:52.540Z,1.17
2023-04-27T06:22:19.447Z,0.73
2023-04-27T06:24:47.078Z,0.83
2023-04-27T06:27:14.243Z,1.00
2023-04-27T06:29:41.170Z,1.23
2023-04-27T06:32:08.135Z,1.07
2023-04-27T06:34:35.435Z,1.03
2023-04-27T06:37:02.634Z,0.93
2023-04-27T06:39:29.923Z,2.20
2023-04-27T06:41:56.941Z,1.60
2023-04-27T06:44:23.796Z,2.57
2023-04-27T06:46:50.586Z,2.30
2023-04-27T06:49:17.642Z,2.80
2023-04-27T06:51:44.602Z,3.20
2023-04-27T06:54:12.336Z,2.80
2023-04-27T06:56:39.381Z,1.60
2023-04-27T06:59:06.305Z,2.33
2023-04-27T07:01:33.244Z,7.40
2023-04-27T07:04:00.174Z,8.07
2023-04-27T07:06:28.813Z,5.50
2023-04-27T07:08:55.725Z,4.20
2023-04-27T07:11:22.629Z,2.50
2023-04-27T07:13:49.764Z,2.30
2023-04-27T07:16:17.393Z,2.37
2023-04-27T07:18:44.390Z,1.90
2023-04-27T07:21:11.620Z,1.80
2023-04-27T07:23:42.972Z,1.20
2023-04-27T07:26:10.244Z,1.13
2023-04-27T07:28:37.123Z,0.87
2023-04-27T07:31:07.546Z,1.00
2023-04-27T07:33:34.773Z,0.90
2023-04-27T07:36:02.417Z,0.70
2023-04-27T07:38:31.436Z,0.80
2023-04-27T07:41:02.129Z,0.70
2023-04-27T07:43:29.067Z,0.43
2023-04-27T07:45:58.601Z,0.50
2023-04-27T07:48:25.766Z,0.50
2023-04-27T07:50:52.827Z,0.40
2023-04-27T07:53:19.666Z,0.50
2023-04-27T07:55:46.585Z,0.30
2023-04-27T07:58:13.583Z,0.30
2023-04-27T08:00:40.507Z,0.50
2023-04-27T08:03:08.314Z,0.30
2023-04-27T08:05:36.022Z,0.30
2023-04-27T08:08:03.165Z,0.47
2023-04-27T08:10:30.027Z,0.63
2023-04-27T08:12:56.861Z,0.40
2023-04-27T08:15:23.858Z,0.30
2023-04-27T08:17:50.776Z,0.30
2023-04-27T08:20:17.693Z,0.27
2023-04-27T08:22:44.599Z,0.27
2023-04-27T08:25:11.395Z,0.20
2023-04-27T08:27:40.402Z,0.20
2023-04-27T08:30:08.084Z,0.30
2023-04-27T08:32:35.034Z,0.30
2023-04-27T08:35:01.845Z,0.40
2023-04-27T08:37:28.703Z,0.20
2023-04-27T08:39:55.715Z,0.60
2023-04-27T08:42:22.559Z,0.20
2023-04-27T08:44:49.474Z,0.40
2023-04-27T08:47:16.340Z,0.20
2023-04-27T08:49:43.123Z,0.33
2023-04-27T08:52:17.215Z,0.20
2023-04-27T08:54:44.442Z,0.20
2023-04-27T08:57:12.438Z,0.20
2023-04-27T08:59:44.405Z,0.27
2023-04-27T09:02:20.927Z,0.40
2023-04-27T09:04:47.976Z,0.43
2023-04-27T09:07:16.718Z,0.50
2023-04-27T09:09:44.584Z,0.50
2023-04-27T09:12:29.684Z,0.40
2023-04-27T09:14:57.946Z,0.27
2023-04-27T09:17:28.743Z,0.40
2023-04-27T09:20:09.307Z,0.40
2023-04-27T09:22:46.221Z,0.50
2023-04-27T09:25:29.023Z,0.60
2023-04-27T09:27:58.264Z,0.60
2023-04-27T09:30:26.694Z,0.60
2023-04-27T09:32:59.482Z,0.57
2023-04-27T09:35:31.875Z,0.60
2023-04-27T09:37:59.788Z,0.60
2023-04-27T09:40:29.878Z,0.80
2023-04-27T09:42:58.405Z,0.90
2023-04-27T09:45:25.890Z,0.80
2023-04-27T09:47:53.138Z,0.67
2023-04-27T09:50:22.075Z,1.07
2023-04-27T09:52:49.138Z,1.00
2023-04-27T09:55:19.896Z,1.10
2023-04-27T09:57:56.231Z,1.00
2023-04-27T10:01:01.294Z,1.10
2023-04-27T10:03:37.385Z,1.20
2023-04-27T10:06:29.107Z,1.00
2023-04-27T10:08:57.415Z,1.37
2023-04-27T10:11:36.750Z,1.53
2023-04-27T10:14:11.338Z,1.10
2023-04-27T10:16:47.132Z,1.17
2023-04-27T10:19:14.798Z,1.20
2023-04-27T10:22:05.584Z,1.13
2023-04-27T10:24:38.769Z,1.40
2023-04-27T10:27:08.077Z,1.27
2023-04-27T10:29:38.906Z,1.20
2023-04-27T10:32:13.387Z,1.20
2023-04-27T10:34:41.440Z,1.10
2023-04-27T10:37:12.128Z,1.60
2023-04-27T10:39:48.432Z,1.70
2023-04-27T10:42:26.838Z,2.00
2023-04-27T10:44:57.114Z,2.13
2023-04-27T10:47:24.815Z,2.07
2023-04-27T10:49:53.855Z,2.20
2023-04-27T10:52:21.095Z,1.80
2023-04-27T10:54:47.984Z,1.70
2023-04-27T10:57:14.785Z,1.90
2023-04-27T10:59:55.718Z,2.40
2023-04-27T11:02:27.779Z,2.27
2023-04-27T11:04:55.591Z,2.10
2023-04-27T11:07:26.744Z,2.50
2023-04-27T11:09:53.802Z,2.07
2023-04-27T11:12:21.640Z,2.67
2023-04-27T11:14:48.451Z,2.27
2023-04-27T11:17:15.288Z,2.30
2023-04-27T11:19:47.624Z,2.40
2023-04-27T11:22:18.208Z,2.70
2023-04-27T11:24:52.071Z,1.97
2023-04-27T11:27:20.190Z,2.13
2023-04-27T11:29:46.964Z,2.27
2023-04-27T11:32:23.704Z,2.37
2023-04-27T11:34:53.740Z,2.20
2023-04-27T11:37:26.760Z,2.07
2023-04-27T11:39:54.885Z,2.33
2023-04-27T11:42:26.768Z,1.97
2023-04-27T11:44:55.744Z,2.10
2023-04-27T11:47:23.747Z,2.27
2023-04-27T11:49:51.813Z,2.20
2023-04-27T11:52:19.179Z,2.33
2023-04-27T11:54:50.462Z,2.00
2023-04-27T11:57:17.372Z,2.30
2023-04-27T11:59:44.345Z,2.23
2023-04-27T12:02:11.232Z,2.37
2023-04-27T12:04:38.329Z,2.20
2023-04-27T12:07:05.439Z,2.30
2023-04-27T12:09:32.309Z,2.53
2023-04-27T12:11:59.203Z,2.43
2023-04-27T12:14:26.078Z,2.43
2023-04-27T12:16:53.620Z,2.67
2023-04-27T12:19:20.542Z,2.50
2023-04-27T12:21:47.396Z,2.20
2023-04-27T12:24:14.887Z,1.90
2023-04-27T12:26:41.944Z,2.00
2023-04-27T12:29:08.805Z,2.67
2023-04-27T12:31:35.921Z,1.77
2023-04-27T12:34:02.801Z,2.30
2023-04-27T12:36:29.746Z,2.30
2023-04-27T12:39:01.772Z,2.03
2023-04-27T12:41:29.411Z,2.43
2023-04-27T12:43:56.877Z,2.03
2023-04-27T12:46:24.004Z,2.40
2023-04-27T12:48:51.043Z,2.33
2023-04-27T12:51:17.916Z,1.93
2023-04-27T12:53:44.933Z,1.70
2023-04-27T12:56:11.713Z,2.00
2023-04-27T12:58:38.536Z,1.80
2023-04-27T13:01:07.878Z,2.10
2023-04-27T13:03:34.885Z,1.80
2023-04-27T13:06:02.301Z,2.13
2023-04-27T13:08:30.004Z,2.10
2023-04-27T13:10:57.294Z,2.07
2023-04-27T13:13:24.775Z,1.90
2023-04-27T13:15:51.626Z,1.90
2023-04-27T13:18:20.415Z,1.80
2023-04-27T13:20:48.866Z,2.10
2023-04-27T13:23:15.740Z,2.00
2023-04-27T13:25:42.560Z,1.80
2023-04-27T13:28:09.528Z,1.53
2023-04-27T13:30:36.506Z,2.23
2023-04-27T13:33:18.467Z,2.00
2023-04-27T13:35:48.478Z,2.47
2023-04-27T13:38:15.356Z,2.00
2023-04-27T13:40:42.138Z,1.90
2023-04-27T13:43:09.093Z,2.03
2023-04-27T13:45:36.249Z,1.77
2023-04-27T13:48:03.241Z,1.90
2023-04-27T13:50:30.228Z,1.77
2023-04-27T13:52:57.139Z,1.67
2023-04-27T13:55:24.100Z,1.80
2023-04-27T13:57:51.048Z,1.60
2023-04-27T14:00:18.661Z,2.17
2023-04-27T14:02:45.707Z,1.50
2023-04-27T14:05:12.655Z,1.90
2023-04-27T14:07:39.521Z,1.80
2023-04-27T14:10:07.107Z,2.23
2023-04-27T14:12:34.120Z,1.93
2023-04-27T14:15:00.899Z,1.60
2023-04-27T14:17:27.710Z,2.03
2023-04-27T14:19:54.606Z,2.17
2023-04-27T14:22:21.448Z,2.20
2023-04-27T14:24:48.232Z,2.00
2023-04-27T14:27:16.226Z,1.80
2023-04-27T14:29:43.088Z,2.07
2023-04-27T14:32:10.033Z,2.43
2023-04-27T14:34:36.981Z,2.00
2023-04-27T14:37:04.110Z,1.90
2023-04-27T14:39:31.029Z,2.20
2023-04-27T14:41:57.861Z,1.97
2023-04-27T14:44:25.053Z,2.37
2023-04-27T14:46:51.952Z,2.10
2023-04-27T14:49:18.805Z,2.00
2023-04-27T14:51:45.863Z,1.93
2023-04-27T14:54:13.481Z,1.97
2023-04-27T14:56:40.299Z,2.27
2023-04-27T14:59:07.323Z,2.10
2023-04-27T15:01:34.237Z,1.70
2023-04-27T15:04:01.494Z,2.07
2023-04-27T15:06:28.858Z,2.33
2023-04-27T15:08:56.201Z,1.93
2023-04-27T15:11:23.468Z,2.07
2023-04-27T15:13:50.400Z,2.30
2023-04-27T15:16:17.232Z,2.20
2023-04-27T15:18:44.098Z,2.13
2023-04-27T15:21:11.209Z,2.10
2023-04-27T15:23:39.759Z,2.30
2023-04-27T15:26:06.566Z,2.30
2023-04-27T15:28:34.215Z,2.73
2023-04-27T15:31:01.212Z,1.90
2023-04-27T15:33:28.144Z,1.97
2023-04-27T15:35:55.202Z,2.30
2023-04-27T15:38:24.123Z,2.13
2023-04-27T15:40:50.965Z,2.43
2023-04-27T15:43:17.806Z,2.20
2023-04-27T15:45:44.872Z,2.00
2023-04-27T15:48:12.381Z,2.47
2023-04-27T15:50:39.274Z,1.90
2023-04-27T15:53:06.474Z,2.00
2023-04-27T15:55:33.439Z,2.17
2023-04-27T15:58:00.413Z,2.10
2023-04-27T16:00:27.476Z,1.73
2023-04-27T16:02:54.963Z,2.30
2023-04-27T16:05:21.932Z,1.97
2023-04-27T16:07:48.706Z,2.27
2023-04-27T16:10:15.673Z,2.30
2023-04-27T16:12:42.498Z,2.30
2023-04-27T16:15:11.522Z,2.23
2023-04-27T16:17:38.999Z,2.30
2023-04-27T16:20:06.938Z,2.00
2023-04-27T16:22:37.714Z,2.10
2023-04-27T16:25:10.685Z,1.93
2023-04-27T16:27:38.653Z,1.90
2023-04-27T16:30:06.967Z,2.33
2023-04-27T16:32:35.538Z,2.50
2023-04-27T16:35:03.265Z,2.40
2023-04-27T16:37:30.169Z,2.33
2023-04-27T16:39:59.918Z,2.00
2023-04-27T16:42:26.913Z,1.83
2023-04-27T16:44:53.778Z,2.10
2023-04-27T16:47:20.984Z,2.40
2023-04-27T16:49:47.849Z,3.23
2023-04-27T16:52:14.719Z,2.43
2023-04-27T16:54:41.714Z,2.50
2023-04-27T16:57:08.592Z,2.70
2023-04-27T16:59:35.486Z,2.70
2023-04-27T17:02:16.475Z,3.23
2023-04-27T17:04:48.516Z,2.97
2023-04-27T17:07:15.452Z,3.00
2023-04-27T17:09:42.456Z,2.97
2023-04-27T17:12:12.524Z,3.43
2023-04-27T17:14:39.503Z,2.80
2023-04-27T17:17:06.835Z,2.60
2023-04-27T17:19:33.862Z,2.73
2023-04-27T17:22:00.734Z,2.70
2023-04-27T17:24:27.624Z,2.73
2023-04-27T17:26:54.499Z,2.80
2023-04-27T17:29:21.886Z,3.20
2023-04-27T17:31:50.313Z,3.00
2023-04-27T17:34:17.380Z,3.07
2023-04-27T17:36:44.286Z,3.30
2023-04-27T17:39:13.124Z,2.40
2023-04-27T17:41:40.425Z,3.07
2023-04-27T17:44:07.259Z,2.40
2023-04-27T17:46:34.168Z,2.63
2023-04-27T17:49:01.114Z,3.17
2023-04-27T17:51:27.924Z,3.30
2023-04-27T17:53:54.699Z,2.60
2023-04-27T17:56:21.546Z,2.70
2023-04-27T17:58:48.438Z,3.00
2023-04-27T18:01:15.309Z,2.60
2023-04-27T18:03:42.499Z,2.60
2023-04-27T18:06:09.576Z,2.93
2023-04-27T18:08:36.611Z,2.40
2023-04-27T18:11:03.482Z,2.70
2023-04-27T18:13:31.985Z,3.20
2023-04-27T18:15:59.553Z,2.63
2023-04-27T18:18:27.014Z,4.73
2023-04-27T18:20:53.947Z,3.37
2023-04-27T18:23:21.309Z,3.40
2023-04-27T18:25:48.784Z,3.80
2023-04-27T18:28:15.719Z,3.80
2023-04-27T18:30:42.572Z,3.57
2023-04-27T18:33:09.571Z,3.13
2023-04-27T18:35:36.599Z,3.77
2023-04-27T18:38:03.723Z,2.97
2023-04-27T18:40:30.882Z,3.50
2023-04-27T18:42:57.841Z,3.17
2023-04-27T18:45:24.728Z,2.90
2023-04-27T18:47:51.834Z,2.63
2023-04-27T18:50:19.340Z,2.87
2023-04-27T18:52:46.578Z,3.20
2023-04-27T18:55:17.099Z,2.60
2023-04-27T18:57:44.722Z,2.60
2023-04-27T19:00:13.200Z,3.00
2023-04-27T19:02:40.590Z,3.20
2023-04-27T19:05:12.816Z,2.73
2023-04-27T19:07:40.840Z,2.60
2023-04-27T19:10:08.413Z,2.70
2023-04-27T19:12:35.348Z,2.47
2023-04-27T19:15:02.322Z,2.70
2023-04-27T19:17:29.271Z,3.63
2023-04-27T19:19:56.700Z,2.80
2023-04-27T19:22:23.619Z,2.53
2023-04-27T19:24:50.587Z,2.40
2023-04-27T19:27:17.479Z,3.00
2023-04-27T19:29:56.716Z,2.50
2023-04-27T19:32:27.825Z,2.83
2023-04-27T19:34:56.222Z,2.70
2023-04-27T19:37:23.827Z,2.63
2023-04-27T19:39:51.318Z,2.47
2023-04-27T19:42:18.188Z,3.23
2023-04-27T19:44:45.091Z,3.03
2023-04-27T19:47:12.069Z,2.47
2023-04-27T19:49:39.361Z,2.43
2023-04-27T19:52:07.721Z,2.80
2023-04-27T19:54:36.399Z,3.00
2023-04-27T19:57:04.090Z,2.93
2023-04-27T19:59:30.993Z,2.60
2023-04-27T20:01:58.032Z,2.50
2023-04-27T20:04:25.217Z,2.57
2023-04-27T20:06:52.249Z,2.67
2023-04-27T20:09:22.058Z,2.77
2023-04-27T20:11:49.207Z,2.97
2023-04-27T20:14:16.212Z,2.80
2023-04-27T20:16:43.348Z,2.43
2023-04-27T20:19:11.044Z,2.60
2023-04-27T20:21:38.376Z,2.93
2023-04-27T20:24:05.345Z,2.70
2023-04-27T20:26:32.220Z,3.00
2023-04-27T20:28:59.114Z,2.50
2023-04-27T20:31:26.219Z,2.93
2023-04-27T20:33:53.922Z,2.50
2023-04-27T20:36:20.860Z,3.30
2023-04-27T20:38:49.340Z,3.03
2023-04-27T20:41:16.207Z,2.87
2023-04-27T20:43:45.655Z,2.77
2023-04-27T20:46:12.743Z,2.83
2023-04-27T20:48:39.933Z,2.47
2023-04-27T20:51:07.210Z,2.73
2023-04-27T20:53:34.010Z,2.33
2023-04-27T20:56:00.794Z,2.87
2023-04-27T20:58:27.689Z,2.50
2023-04-27T21:00:54.603Z,2.50
2023-04-27T21:03:22.234Z,2.73
2023-04-27T21:05:49.572Z,2.17
2023-04-27T21:08:17.147Z,2.60
2023-04-27T21:10:44.724Z,2.47
2023-04-27T21:13:11.687Z,2.20
2023-04-27T21:15:38.792Z,2.20
2023-04-27T21:18:09.432Z,2.67
2023-04-27T21:20:40.438Z,2.47
2023-04-27T21:23:07.460Z,2.77
2023-04-27T21:25:35.163Z,2.40
2023-04-27T21:28:02.083Z,2.37
2023-04-27T21:30:30.663Z,2.53
2023-04-27T21:32:57.613Z,2.77
2023-04-27T21:35:25.327Z,3.80
2023-04-27T21:37:52.164Z,2.50
2023-04-27T21:40:19.160Z,2.57
2023-04-27T21:42:46.247Z,2.13
2023-04-27T21:45:13.610Z,2.37
2023-04-27T21:47:40.519Z,1.77
2023-04-27T21:50:08.538Z,2.97
2023-04-27T21:52:35.376Z,2.00
2023-04-27T21:55:02.206Z,1.90
2023-04-27T21:57:29.076Z,2.73
2023-04-27T21:59:55.967Z,2.30
2023-04-27T22:02:22.937Z,2.00
2023-04-27T22:04:51.541Z,1.77
2023-04-27T22:07:18.980Z,1.83
2023-04-27T22:09:46.061Z,1.90
2023-04-27T22:12:12.881Z,2.40
2023-04-27T22:14:39.801Z,2.33
2023-04-27T22:17:07.730Z,2.10
2023-04-27T22:19:34.781Z,2.23
2023-04-27T22:22:01.611Z,1.80
2023-04-27T22:24:28.571Z,1.73
2023-04-27T22:26:55.380Z,2.07
2023-04-27T22:29:22.168Z,1.93
2023-04-27T22:31:49.050Z,2.00
2023-04-27T22:34:16.214Z,1.90
2023-04-27T22:36:43.263Z,1.97
2023-04-27T22:39:10.268Z,1.83
2023-04-27T22:41:37.309Z,2.03
2023-04-27T22:44:04.128Z,2.20
2023-04-27T22:46:31.004Z,2.00
2023-04-27T22:48:58.733Z,1.93
2023-04-27T22:51:27.417Z,1.70
2023-04-27T22:53:55.094Z,1.87
2023-04-27T22:56:22.665Z,2.03
2023-04-27T22:58:49.573Z,1.83
2023-04-27T23:01:16.814Z,1.83
2023-04-27T23:03:43.968Z,1.90
2023-04-27T23:06:17.060Z,1.70
2023-04-27T23:08:47.121Z,2.20
2023-04-27T23:11:15.609Z,2.30
2023-04-27T23:13:42.615Z,2.37
2023-04-27T23:16:10.242Z,2.03
2023-04-27T23:18:37.266Z,1.80
2023-04-27T23:21:04.340Z,2.23
2023-04-27T23:23:31.202Z,2.17
2023-04-27T23:25:58.061Z,2.30
2023-04-27T23:28:24.930Z,2.47
2023-04-27T23:30:55.263Z,2.23
2023-04-27T23:33:22.387Z,2.23
2023-04-27T23:35:49.515Z,2.47
2023-04-27T23:38:16.356Z,2.10
2023-04-27T23:40:43.312Z,1.90
2023-04-27T23:43:10.160Z,2.27
2023-04-27T23:45:37.030Z,2.10
2023-04-27T23:48:04.227Z,2.17
2023-04-27T23:50:31.087Z,2.23
2023-04-27T23:52:57.909Z,2.43
2023-04-27T23:55:24.774Z,2.37
2023-04-27T23:57:54.878Z,1.93
